sensor_id;sensor_type;location;lat;lon;timestamp;P1;durP1;ratioP1;P2;durP2;ratioP2
5690;SDS011;2870;42.680;23.364;2022-11-18T00:01:36;39.00;;;25.80;;
5690;SDS011;2870;42.680;23.364;2022-11-18T00:04:03;46.43;;;26.50;;
5690;SDS011;2870;42.680;23.364;2022-11-18T00:06:30;43.40;;;26.00;;
5690;SDS011;2870;42.680;23.364;2022-11-18T00:08:57;44.10;;;23.53;;
5690;SDS011;2870;42.680;23.364;2022-11-18T00:11:25;40.03;;;23.50;;
5690;SDS011;2870;42.680;23.364;2022-11-18T00:14:11;46.73;;;22.03;;
5690;SDS011;2870;42.680;23.364;2022-11-18T00:16:50;43.53;;;25.53;;
5690;SDS011;2870;42.680;23.364;2022-11-18T00:19:19;40.23;;;22.53;;
5690;SDS011;2870;42.680;23.364;2022-11-18T00:21:48;38.50;;;23.83;;
5690;SDS011;2870;42.680;23.364;2022-11-18T00:24:15;45.47;;;22.77;;
5690;SDS011;2870;42.680;23.364;2022-11-18T00:26:42;39.83;;;23.20;;
5690;SDS011;2870;42.680;23.364;2022-11-18T00:29:09;34.20;;;23.50;;
5690;SDS011;2870;42.680;23.364;2022-11-18T00:31:36;36.33;;;22.60;;
5690;SDS011;2870;42.680;23.364;2022-11-18T00:34:05;38.37;;;23.10;;
5690;SDS011;2870;42.680;23.364;2022-11-18T00:36:32;43.73;;;22.50;;
5690;SDS011;2870;42.680;23.364;2022-11-18T00:38:59;38.37;;;22.23;;
5690;SDS011;2870;42.680;23.364;2022-11-18T00:41:26;41.03;;;22.60;;
5690;SDS011;2870;42.680;23.364;2022-11-18T00:44:13;44.80;;;23.63;;
5690;SDS011;2870;42.680;23.364;2022-11-18T00:46:39;35.10;;;23.60;;
5690;SDS011;2870;42.680;23.364;2022-11-18T00:49:07;40.20;;;23.90;;
5690;SDS011;2870;42.680;23.364;2022-11-18T00:51:35;38.60;;;23.33;;
5690;SDS011;2870;42.680;23.364;2022-11-18T00:54:02;30.43;;;21.60;;
5690;SDS011;2870;42.680;23.364;2022-11-18T00:58:55;36.53;;;23.60;;
5690;SDS011;2870;42.680;23.364;2022-11-18T01:01:23;34.67;;;22.93;;
5690;SDS011;2870;42.680;23.364;2022-11-18T01:03:50;37.63;;;23.60;;
5690;SDS011;2870;42.680;23.364;2022-11-18T01:06:18;32.23;;;21.53;;
5690;SDS011;2870;42.680;23.364;2022-11-18T01:08:45;36.23;;;24.10;;
5690;SDS011;2870;42.680;23.364;2022-11-18T01:11:12;38.50;;;22.97;;
5690;SDS011;2870;42.680;23.364;2022-11-18T01:13:56;38.23;;;23.10;;
5690;SDS011;2870;42.680;23.364;2022-11-18T01:16:23;36.60;;;21.33;;
5690;SDS011;2870;42.680;23.364;2022-11-18T01:18:52;35.73;;;21.93;;
5690;SDS011;2870;42.680;23.364;2022-11-18T01:21:21;31.90;;;22.67;;
5690;SDS011;2870;42.680;23.364;2022-11-18T01:23:48;46.37;;;24.03;;
5690;SDS011;2870;42.680;23.364;2022-11-18T01:26:15;44.50;;;27.93;;
5690;SDS011;2870;42.680;23.364;2022-11-18T01:28:43;42.93;;;27.47;;
5690;SDS011;2870;42.680;23.364;2022-11-18T01:31:11;39.80;;;25.40;;
5690;SDS011;2870;42.680;23.364;2022-11-18T01:33:39;99.67;;;56.13;;
5690;SDS011;2870;42.680;23.364;2022-11-18T01:36:13;97.43;;;58.17;;
5690;SDS011;2870;42.680;23.364;2022-11-18T01:38:42;100.83;;;55.33;;
5690;SDS011;2870;42.680;23.364;2022-11-18T01:41:09;89.60;;;55.07;;
5690;SDS011;2870;42.680;23.364;2022-11-18T01:43:46;91.97;;;52.90;;
5690;SDS011;2870;42.680;23.364;2022-11-18T01:46:14;94.57;;;48.60;;
5690;SDS011;2870;42.680;23.364;2022-11-18T01:48:41;108.03;;;51.67;;
5690;SDS011;2870;42.680;23.364;2022-11-18T01:51:11;108.50;;;53.10;;
5690;SDS011;2870;42.680;23.364;2022-11-18T01:53:44;88.27;;;52.30;;
5690;SDS011;2870;42.680;23.364;2022-11-18T01:56:15;94.60;;;55.10;;
5690;SDS011;2870;42.680;23.364;2022-11-18T01:58:45;91.13;;;50.50;;
5690;SDS011;2870;42.680;23.364;2022-11-18T02:01:14;92.10;;;54.07;;
5690;SDS011;2870;42.680;23.364;2022-11-18T02:03:41;91.00;;;54.03;;
5690;SDS011;2870;42.680;23.364;2022-11-18T02:06:10;96.93;;;52.50;;
5690;SDS011;2870;42.680;23.364;2022-11-18T02:08:38;119.07;;;56.50;;
5690;SDS011;2870;42.680;23.364;2022-11-18T02:11:09;118.67;;;58.00;;
5690;SDS011;2870;42.680;23.364;2022-11-18T02:13:58;113.40;;;53.97;;
5690;SDS011;2870;42.680;23.364;2022-11-18T02:16:30;116.93;;;51.93;;
5690;SDS011;2870;42.680;23.364;2022-11-18T02:19:09;110.37;;;52.97;;
5690;SDS011;2870;42.680;23.364;2022-11-18T02:21:53;124.93;;;54.57;;
5690;SDS011;2870;42.680;23.364;2022-11-18T02:24:37;148.00;;;50.07;;
5690;SDS011;2870;42.680;23.364;2022-11-18T02:30:18;151.63;;;49.40;;
5690;SDS011;2870;42.680;23.364;2022-11-18T02:32:46;130.97;;;42.20;;
5690;SDS011;2870;42.680;23.364;2022-11-18T02:35:19;151.60;;;45.37;;
5690;SDS011;2870;42.680;23.364;2022-11-18T02:37:50;168.60;;;46.87;;
5690;SDS011;2870;42.680;23.364;2022-11-18T02:40:23;191.17;;;47.63;;
5690;SDS011;2870;42.680;23.364;2022-11-18T02:42:53;145.33;;;45.23;;
5690;SDS011;2870;42.680;23.364;2022-11-18T02:45:26;123.70;;;46.77;;
5690;SDS011;2870;42.680;23.364;2022-11-18T02:47:55;165.30;;;44.47;;
5690;SDS011;2870;42.680;23.364;2022-11-18T02:50:25;103.13;;;40.10;;
5690;SDS011;2870;42.680;23.364;2022-11-18T02:52:56;121.30;;;44.37;;
5690;SDS011;2870;42.680;23.364;2022-11-18T02:55:25;117.43;;;47.67;;
5690;SDS011;2870;42.680;23.364;2022-11-18T02:57:55;116.60;;;43.60;;
5690;SDS011;2870;42.680;23.364;2022-11-18T03:00:23;127.13;;;42.00;;
5690;SDS011;2870;42.680;23.364;2022-11-18T03:02:51;85.90;;;42.00;;
5690;SDS011;2870;42.680;23.364;2022-11-18T03:05:19;135.07;;;44.97;;
5690;SDS011;2870;42.680;23.364;2022-11-18T03:07:53;85.63;;;42.80;;
5690;SDS011;2870;42.680;23.364;2022-11-18T03:10:23;87.00;;;43.60;;
5690;SDS011;2870;42.680;23.364;2022-11-18T03:12:58;94.03;;;43.47;;
5690;SDS011;2870;42.680;23.364;2022-11-18T03:15:32;105.23;;;46.03;;
5690;SDS011;2870;42.680;23.364;2022-11-18T03:18:10;82.70;;;39.27;;
5690;SDS011;2870;42.680;23.364;2022-11-18T03:20:44;97.80;;;40.83;;
5690;SDS011;2870;42.680;23.364;2022-11-18T03:23:17;87.73;;;43.57;;
5690;SDS011;2870;42.680;23.364;2022-11-18T03:25:52;78.43;;;42.90;;
5690;SDS011;2870;42.680;23.364;2022-11-18T03:28:23;106.90;;;41.20;;
5690;SDS011;2870;42.680;23.364;2022-11-18T03:30:54;75.50;;;36.63;;
5690;SDS011;2870;42.680;23.364;2022-11-18T03:33:35;75.73;;;39.40;;
5690;SDS011;2870;42.680;23.364;2022-11-18T03:36:05;77.33;;;40.33;;
5690;SDS011;2870;42.680;23.364;2022-11-18T03:38:36;86.43;;;38.30;;
5690;SDS011;2870;42.680;23.364;2022-11-18T03:41:08;104.50;;;39.27;;
5690;SDS011;2870;42.680;23.364;2022-11-18T03:43:38;206.53;;;39.67;;
5690;SDS011;2870;42.680;23.364;2022-11-18T03:46:09;146.93;;;42.67;;
5690;SDS011;2870;42.680;23.364;2022-11-18T03:48:42;117.60;;;39.33;;
5690;SDS011;2870;42.680;23.364;2022-11-18T03:51:15;202.37;;;33.27;;
5690;SDS011;2870;42.680;23.364;2022-11-18T03:53:45;166.43;;;29.17;;
5690;SDS011;2870;42.680;23.364;2022-11-18T03:56:20;120.73;;;28.27;;
5690;SDS011;2870;42.680;23.364;2022-11-18T03:59:03;118.30;;;28.33;;
5690;SDS011;2870;42.680;23.364;2022-11-18T04:01:37;154.57;;;32.40;;
5690;SDS011;2870;42.680;23.364;2022-11-18T04:04:08;139.23;;;32.80;;
5690;SDS011;2870;42.680;23.364;2022-11-18T04:06:36;163.07;;;41.50;;
5690;SDS011;2870;42.680;23.364;2022-11-18T04:09:08;156.00;;;42.80;;
5690;SDS011;2870;42.680;23.364;2022-11-18T04:11:40;108.70;;;43.30;;
5690;SDS011;2870;42.680;23.364;2022-11-18T04:14:30;154.53;;;46.03;;
5690;SDS011;2870;42.680;23.364;2022-11-18T04:16:59;110.57;;;48.47;;
5690;SDS011;2870;42.680;23.364;2022-11-18T04:19:27;140.50;;;51.63;;
5690;SDS011;2870;42.680;23.364;2022-11-18T04:21:54;153.47;;;53.57;;
5690;SDS011;2870;42.680;23.364;2022-11-18T04:24:20;146.13;;;52.63;;
5690;SDS011;2870;42.680;23.364;2022-11-18T04:26:47;119.33;;;50.20;;
5690;SDS011;2870;42.680;23.364;2022-11-18T04:29:14;136.70;;;49.03;;
5690;SDS011;2870;42.680;23.364;2022-11-18T04:31:41;121.47;;;46.47;;
5690;SDS011;2870;42.680;23.364;2022-11-18T04:34:08;134.43;;;48.53;;
5690;SDS011;2870;42.680;23.364;2022-11-18T04:36:36;115.80;;;43.93;;
5690;SDS011;2870;42.680;23.364;2022-11-18T04:39:03;120.47;;;41.47;;
5690;SDS011;2870;42.680;23.364;2022-11-18T04:41:30;71.20;;;34.17;;
5690;SDS011;2870;42.680;23.364;2022-11-18T04:44:14;104.67;;;35.40;;
5690;SDS011;2870;42.680;23.364;2022-11-18T04:46:41;122.70;;;35.40;;
5690;SDS011;2870;42.680;23.364;2022-11-18T04:49:09;127.53;;;29.37;;
5690;SDS011;2870;42.680;23.364;2022-11-18T04:51:39;64.43;;;21.60;;
5690;SDS011;2870;42.680;23.364;2022-11-18T04:54:06;114.03;;;23.50;;
5690;SDS011;2870;42.680;23.364;2022-11-18T04:56:34;65.23;;;22.93;;
5690;SDS011;2870;42.680;23.364;2022-11-18T04:59:01;93.03;;;19.80;;
5690;SDS011;2870;42.680;23.364;2022-11-18T05:01:29;128.33;;;22.47;;
5690;SDS011;2870;42.680;23.364;2022-11-18T05:03:58;180.13;;;21.20;;
5690;SDS011;2870;42.680;23.364;2022-11-18T05:06:25;119.67;;;21.60;;
5690;SDS011;2870;42.680;23.364;2022-11-18T05:08:53;88.30;;;19.93;;
5690;SDS011;2870;42.680;23.364;2022-11-18T05:11:21;116.03;;;22.33;;
5690;SDS011;2870;42.680;23.364;2022-11-18T05:14:06;75.53;;;21.50;;
5690;SDS011;2870;42.680;23.364;2022-11-18T05:16:33;144.50;;;21.53;;
5690;SDS011;2870;42.680;23.364;2022-11-18T05:19:00;146.83;;;21.77;;
5690;SDS011;2870;42.680;23.364;2022-11-18T05:21:28;75.60;;;21.90;;
5690;SDS011;2870;42.680;23.364;2022-11-18T05:23:56;123.40;;;20.93;;
5690;SDS011;2870;42.680;23.364;2022-11-18T05:26:24;93.20;;;21.83;;
5690;SDS011;2870;42.680;23.364;2022-11-18T05:28:51;89.13;;;19.90;;
5690;SDS011;2870;42.680;23.364;2022-11-18T05:31:18;85.63;;;19.20;;
5690;SDS011;2870;42.680;23.364;2022-11-18T05:33:45;50.50;;;20.10;;
5690;SDS011;2870;42.680;23.364;2022-11-18T05:36:12;86.80;;;20.23;;
5690;SDS011;2870;42.680;23.364;2022-11-18T05:38:40;132.57;;;21.37;;
5690;SDS011;2870;42.680;23.364;2022-11-18T05:41:09;92.30;;;19.53;;
5690;SDS011;2870;42.680;23.364;2022-11-18T05:43:57;91.07;;;21.23;;
5690;SDS011;2870;42.680;23.364;2022-11-18T05:46:23;83.47;;;20.90;;
5690;SDS011;2870;42.680;23.364;2022-11-18T05:48:49;78.20;;;19.47;;
5690;SDS011;2870;42.680;23.364;2022-11-18T05:51:16;137.60;;;19.67;;
5690;SDS011;2870;42.680;23.364;2022-11-18T05:53:43;115.67;;;18.97;;
5690;SDS011;2870;42.680;23.364;2022-11-18T05:56:14;90.63;;;17.87;;
5690;SDS011;2870;42.680;23.364;2022-11-18T05:58:44;98.27;;;16.27;;
5690;SDS011;2870;42.680;23.364;2022-11-18T06:01:10;148.13;;;20.10;;
5690;SDS011;2870;42.680;23.364;2022-11-18T06:03:41;124.13;;;17.40;;
5690;SDS011;2870;42.680;23.364;2022-11-18T06:06:08;139.30;;;16.03;;
5690;SDS011;2870;42.680;23.364;2022-11-18T06:08:39;164.03;;;19.00;;
5690;SDS011;2870;42.680;23.364;2022-11-18T06:11:13;96.60;;;13.80;;
5690;SDS011;2870;42.680;23.364;2022-11-18T06:13:44;146.63;;;14.43;;
5690;SDS011;2870;42.680;23.364;2022-11-18T06:16:15;111.20;;;14.40;;
5690;SDS011;2870;42.680;23.364;2022-11-18T06:18:42;287.37;;;20.63;;
5690;SDS011;2870;42.680;23.364;2022-11-18T06:21:09;122.43;;;16.20;;
5690;SDS011;2870;42.680;23.364;2022-11-18T06:23:37;107.60;;;15.57;;
5690;SDS011;2870;42.680;23.364;2022-11-18T06:26:06;127.97;;;16.70;;
5690;SDS011;2870;42.680;23.364;2022-11-18T06:28:37;108.43;;;17.87;;
5690;SDS011;2870;42.680;23.364;2022-11-18T06:31:05;184.60;;;17.80;;
5690;SDS011;2870;42.680;23.364;2022-11-18T06:33:32;128.53;;;15.40;;
5690;SDS011;2870;42.680;23.364;2022-11-18T06:35:59;194.63;;;20.50;;
5690;SDS011;2870;42.680;23.364;2022-11-18T06:38:26;175.93;;;19.67;;
5690;SDS011;2870;42.680;23.364;2022-11-18T06:40:53;102.73;;;18.83;;
5690;SDS011;2870;42.680;23.364;2022-11-18T06:43:23;124.90;;;22.77;;
5690;SDS011;2870;42.680;23.364;2022-11-18T06:46:07;180.70;;;32.97;;
5690;SDS011;2870;42.680;23.364;2022-11-18T06:48:53;93.60;;;27.70;;
5690;SDS011;2870;42.680;23.364;2022-11-18T06:51:20;181.47;;;30.23;;
5690;SDS011;2870;42.680;23.364;2022-11-18T06:53:47;144.27;;;27.57;;
5690;SDS011;2870;42.680;23.364;2022-11-18T06:56:14;139.47;;;28.27;;
5690;SDS011;2870;42.680;23.364;2022-11-18T06:58:42;93.33;;;23.73;;
5690;SDS011;2870;42.680;23.364;2022-11-18T07:01:11;104.70;;;23.77;;
5690;SDS011;2870;42.680;23.364;2022-11-18T07:03:40;98.77;;;23.93;;
5690;SDS011;2870;42.680;23.364;2022-11-18T07:06:07;148.30;;;24.47;;
5690;SDS011;2870;42.680;23.364;2022-11-18T07:08:36;87.13;;;26.70;;
5690;SDS011;2870;42.680;23.364;2022-11-18T07:11:04;178.37;;;22.70;;
5690;SDS011;2870;42.680;23.364;2022-11-18T07:13:33;117.10;;;22.10;;
5690;SDS011;2870;42.680;23.364;2022-11-18T07:16:01;110.80;;;19.70;;
5690;SDS011;2870;42.680;23.364;2022-11-18T07:18:31;107.73;;;17.90;;
5690;SDS011;2870;42.680;23.364;2022-11-18T07:21:01;81.30;;;18.53;;
5690;SDS011;2870;42.680;23.364;2022-11-18T07:23:28;168.90;;;19.37;;
5690;SDS011;2870;42.680;23.364;2022-11-18T07:25:56;102.40;;;20.00;;
5690;SDS011;2870;42.680;23.364;2022-11-18T07:28:23;194.07;;;21.20;;
5690;SDS011;2870;42.680;23.364;2022-11-18T07:30:49;284.60;;;23.77;;
5690;SDS011;2870;42.680;23.364;2022-11-18T07:33:16;155.87;;;18.40;;
5690;SDS011;2870;42.680;23.364;2022-11-18T07:35:45;57.30;;;17.13;;
5690;SDS011;2870;42.680;23.364;2022-11-18T07:38:11;129.17;;;23.57;;
5690;SDS011;2870;42.680;23.364;2022-11-18T07:40:38;66.87;;;20.80;;
5690;SDS011;2870;42.680;23.364;2022-11-18T07:43:05;180.20;;;25.07;;
5690;SDS011;2870;42.680;23.364;2022-11-18T07:45:32;81.80;;;23.30;;
5690;SDS011;2870;42.680;23.364;2022-11-18T07:47:59;54.73;;;22.50;;
5690;SDS011;2870;42.680;23.364;2022-11-18T07:50:26;86.37;;;26.03;;
5690;SDS011;2870;42.680;23.364;2022-11-18T07:52:55;123.67;;;26.87;;
5690;SDS011;2870;42.680;23.364;2022-11-18T07:55:22;98.90;;;26.47;;
5690;SDS011;2870;42.680;23.364;2022-11-18T07:57:49;114.30;;;21.67;;
5690;SDS011;2870;42.680;23.364;2022-11-18T08:00:16;73.57;;;20.20;;
5690;SDS011;2870;42.680;23.364;2022-11-18T08:02:43;112.17;;;22.53;;
5690;SDS011;2870;42.680;23.364;2022-11-18T08:05:11;76.60;;;23.10;;
5690;SDS011;2870;42.680;23.364;2022-11-18T08:07:37;70.17;;;22.17;;
5690;SDS011;2870;42.680;23.364;2022-11-18T08:10:06;80.80;;;21.40;;
5690;SDS011;2870;42.680;23.364;2022-11-18T08:12:34;123.47;;;25.43;;
5690;SDS011;2870;42.680;23.364;2022-11-18T08:15:01;76.63;;;22.97;;
5690;SDS011;2870;42.680;23.364;2022-11-18T08:17:28;83.23;;;25.20;;
5690;SDS011;2870;42.680;23.364;2022-11-18T08:19:55;80.33;;;25.60;;
5690;SDS011;2870;42.680;23.364;2022-11-18T08:22:21;88.67;;;28.80;;
5690;SDS011;2870;42.680;23.364;2022-11-18T08:24:48;99.70;;;27.53;;
5690;SDS011;2870;42.680;23.364;2022-11-18T08:27:16;84.07;;;26.80;;
5690;SDS011;2870;42.680;23.364;2022-11-18T08:29:43;63.43;;;26.27;;
5690;SDS011;2870;42.680;23.364;2022-11-18T08:32:10;78.20;;;25.90;;
5690;SDS011;2870;42.680;23.364;2022-11-18T08:34:38;58.53;;;26.30;;
5690;SDS011;2870;42.680;23.364;2022-11-18T08:37:05;60.43;;;25.83;;
5690;SDS011;2870;42.680;23.364;2022-11-18T08:39:32;65.27;;;28.10;;
5690;SDS011;2870;42.680;23.364;2022-11-18T08:41:58;56.87;;;25.50;;
5690;SDS011;2870;42.680;23.364;2022-11-18T08:44:27;58.03;;;24.67;;
5690;SDS011;2870;42.680;23.364;2022-11-18T08:46:57;59.27;;;24.23;;
5690;SDS011;2870;42.680;23.364;2022-11-18T08:49:24;49.83;;;22.37;;
5690;SDS011;2870;42.680;23.364;2022-11-18T08:51:50;37.47;;;21.23;;
5690;SDS011;2870;42.680;23.364;2022-11-18T08:54:17;48.83;;;23.47;;
5690;SDS011;2870;42.680;23.364;2022-11-18T08:56:44;47.90;;;24.20;;
5690;SDS011;2870;42.680;23.364;2022-11-18T08:59:11;45.00;;;22.40;;
5690;SDS011;2870;42.680;23.364;2022-11-18T09:01:39;48.90;;;22.70;;
5690;SDS011;2870;42.680;23.364;2022-11-18T09:04:07;55.60;;;26.27;;
5690;SDS011;2870;42.680;23.364;2022-11-18T09:06:35;54.60;;;25.93;;
5690;SDS011;2870;42.680;23.364;2022-11-18T09:09:04;51.57;;;24.13;;
5690;SDS011;2870;42.680;23.364;2022-11-18T09:11:31;57.20;;;25.53;;
5690;SDS011;2870;42.680;23.364;2022-11-18T09:13:58;53.87;;;24.23;;
5690;SDS011;2870;42.680;23.364;2022-11-18T09:16:26;50.77;;;25.13;;
5690;SDS011;2870;42.680;23.364;2022-11-18T09:18:57;63.03;;;27.30;;
5690;SDS011;2870;42.680;23.364;2022-11-18T09:21:24;47.80;;;26.37;;
5690;SDS011;2870;42.680;23.364;2022-11-18T09:23:52;57.57;;;28.90;;
5690;SDS011;2870;42.680;23.364;2022-11-18T09:26:19;61.23;;;28.80;;
5690;SDS011;2870;42.680;23.364;2022-11-18T09:28:48;60.10;;;29.60;;
5690;SDS011;2870;42.680;23.364;2022-11-18T09:31:15;64.57;;;29.63;;
5690;SDS011;2870;42.680;23.364;2022-11-18T09:33:43;69.33;;;30.50;;
5690;SDS011;2870;42.680;23.364;2022-11-18T09:36:12;69.30;;;32.43;;
5690;SDS011;2870;42.680;23.364;2022-11-18T09:38:40;63.60;;;29.43;;
5690;SDS011;2870;42.680;23.364;2022-11-18T09:41:12;74.80;;;31.27;;
5690;SDS011;2870;42.680;23.364;2022-11-18T09:43:52;80.33;;;32.70;;
5690;SDS011;2870;42.680;23.364;2022-11-18T09:46:28;72.83;;;32.70;;
5690;SDS011;2870;42.680;23.364;2022-11-18T09:49:01;84.20;;;34.10;;
5690;SDS011;2870;42.680;23.364;2022-11-18T09:51:40;74.13;;;34.37;;
5690;SDS011;2870;42.680;23.364;2022-11-18T09:54:09;75.60;;;34.13;;
5690;SDS011;2870;42.680;23.364;2022-11-18T09:56:38;97.37;;;36.77;;
5690;SDS011;2870;42.680;23.364;2022-11-18T09:59:05;91.37;;;34.57;;
5690;SDS011;2870;42.680;23.364;2022-11-18T10:01:35;72.63;;;36.97;;
5690;SDS011;2870;42.680;23.364;2022-11-18T10:04:02;84.27;;;36.40;;
5690;SDS011;2870;42.680;23.364;2022-11-18T10:06:30;90.37;;;37.60;;
5690;SDS011;2870;42.680;23.364;2022-11-18T10:09:07;74.03;;;33.63;;
5690;SDS011;2870;42.680;23.364;2022-11-18T10:11:44;92.07;;;35.50;;
5690;SDS011;2870;42.680;23.364;2022-11-18T10:14:19;72.20;;;33.83;;
5690;SDS011;2870;42.680;23.364;2022-11-18T10:16:56;75.63;;;32.40;;
5690;SDS011;2870;42.680;23.364;2022-11-18T10:19:31;82.17;;;37.93;;
5690;SDS011;2870;42.680;23.364;2022-11-18T10:22:11;70.67;;;31.57;;
5690;SDS011;2870;42.680;23.364;2022-11-18T10:24:48;73.23;;;37.50;;
5690;SDS011;2870;42.680;23.364;2022-11-18T10:27:16;80.73;;;37.70;;
5690;SDS011;2870;42.680;23.364;2022-11-18T10:29:44;68.67;;;35.30;;
5690;SDS011;2870;42.680;23.364;2022-11-18T10:32:17;77.37;;;35.07;;
5690;SDS011;2870;42.680;23.364;2022-11-18T10:34:46;72.77;;;32.43;;
5690;SDS011;2870;42.680;23.364;2022-11-18T10:37:20;69.57;;;34.67;;
5690;SDS011;2870;42.680;23.364;2022-11-18T10:39:50;67.93;;;33.00;;
5690;SDS011;2870;42.680;23.364;2022-11-18T10:42:19;52.37;;;28.53;;
5690;SDS011;2870;42.680;23.364;2022-11-18T10:44:53;65.67;;;30.73;;
5690;SDS011;2870;42.680;23.364;2022-11-18T10:47:27;59.40;;;27.73;;
5690;SDS011;2870;42.680;23.364;2022-11-18T10:49:57;51.40;;;25.90;;
5690;SDS011;2870;42.680;23.364;2022-11-18T10:52:25;47.30;;;26.00;;
5690;SDS011;2870;42.680;23.364;2022-11-18T10:55:14;54.53;;;27.03;;
5690;SDS011;2870;42.680;23.364;2022-11-18T10:57:45;56.97;;;30.00;;
5690;SDS011;2870;42.680;23.364;2022-11-18T11:03:25;60.50;;;29.73;;
5690;SDS011;2870;42.680;23.364;2022-11-18T11:09:00;64.43;;;31.50;;
5690;SDS011;2870;42.680;23.364;2022-11-18T11:11:31;69.43;;;31.60;;
5690;SDS011;2870;42.680;23.364;2022-11-18T11:14:12;61.67;;;32.30;;
5690;SDS011;2870;42.680;23.364;2022-11-18T11:16:46;78.73;;;34.73;;
5690;SDS011;2870;42.680;23.364;2022-11-18T11:19:19;72.47;;;32.97;;
5690;SDS011;2870;42.680;23.364;2022-11-18T11:21:48;73.80;;;37.40;;
5690;SDS011;2870;42.680;23.364;2022-11-18T11:24:16;69.33;;;33.83;;
5690;SDS011;2870;42.680;23.364;2022-11-18T11:26:55;71.03;;;33.87;;
5690;SDS011;2870;42.680;23.364;2022-11-18T11:29:33;58.27;;;33.63;;
5690;SDS011;2870;42.680;23.364;2022-11-18T11:32:24;89.70;;;47.00;;
5690;SDS011;2870;42.680;23.364;2022-11-18T11:34:57;60.40;;;29.23;;
5690;SDS011;2870;42.680;23.364;2022-11-18T11:37:35;47.27;;;26.27;;
5690;SDS011;2870;42.680;23.364;2022-11-18T11:40:15;45.60;;;23.70;;
5690;SDS011;2870;42.680;23.364;2022-11-18T11:42:52;39.10;;;21.80;;
5690;SDS011;2870;42.680;23.364;2022-11-18T11:45:34;37.20;;;22.07;;
5690;SDS011;2870;42.680;23.364;2022-11-18T11:48:20;38.37;;;23.00;;
5690;SDS011;2870;42.680;23.364;2022-11-18T11:50:57;43.03;;;23.87;;
5690;SDS011;2870;42.680;23.364;2022-11-18T11:53:39;40.87;;;20.57;;
5690;SDS011;2870;42.680;23.364;2022-11-18T11:56:16;42.90;;;20.90;;
5690;SDS011;2870;42.680;23.364;2022-11-18T11:58:54;43.50;;;20.00;;
5690;SDS011;2870;42.680;23.364;2022-11-18T12:01:33;38.37;;;21.97;;
5690;SDS011;2870;42.680;23.364;2022-11-18T12:04:15;39.90;;;20.13;;
5690;SDS011;2870;42.680;23.364;2022-11-18T12:06:52;40.70;;;20.77;;
5690;SDS011;2870;42.680;23.364;2022-11-18T12:09:21;39.03;;;20.50;;
5690;SDS011;2870;42.680;23.364;2022-11-18T12:12:02;43.30;;;21.97;;
5690;SDS011;2870;42.680;23.364;2022-11-18T12:14:56;44.27;;;22.40;;
5690;SDS011;2870;42.680;23.364;2022-11-18T12:17:31;33.33;;;20.50;;
5690;SDS011;2870;42.680;23.364;2022-11-18T12:23:08;32.83;;;17.93;;
5690;SDS011;2870;42.680;23.364;2022-11-18T12:25:53;36.37;;;20.87;;
5690;SDS011;2870;42.680;23.364;2022-11-18T12:28:22;30.83;;;19.87;;
5690;SDS011;2870;42.680;23.364;2022-11-18T12:34:05;29.30;;;18.17;;
5690;SDS011;2870;42.680;23.364;2022-11-18T12:36:54;36.57;;;17.63;;
5690;SDS011;2870;42.680;23.364;2022-11-18T12:42:40;31.03;;;15.60;;
5690;SDS011;2870;42.680;23.364;2022-11-18T12:56:59;37.30;;;18.97;;
5690;SDS011;2870;42.680;23.364;2022-11-18T12:59:31;39.90;;;17.90;;
5690;SDS011;2870;42.680;23.364;2022-11-18T13:02:04;37.07;;;18.23;;
5690;SDS011;2870;42.680;23.364;2022-11-18T13:04:41;29.83;;;18.07;;
5690;SDS011;2870;42.680;23.364;2022-11-18T13:07:09;34.07;;;20.10;;
5690;SDS011;2870;42.680;23.364;2022-11-18T13:09:59;31.60;;;19.93;;
5690;SDS011;2870;42.680;23.364;2022-11-18T13:12:28;28.67;;;17.73;;
5690;SDS011;2870;42.680;23.364;2022-11-18T13:14:56;42.80;;;18.97;;
5690;SDS011;2870;42.680;23.364;2022-11-18T13:17:44;26.03;;;14.67;;
5690;SDS011;2870;42.680;23.364;2022-11-18T13:20:21;32.17;;;16.47;;
5690;SDS011;2870;42.680;23.364;2022-11-18T13:22:51;27.33;;;14.67;;
5690;SDS011;2870;42.680;23.364;2022-11-18T13:25:35;26.90;;;11.90;;
5690;SDS011;2870;42.680;23.364;2022-11-18T13:28:04;21.60;;;10.50;;
5690;SDS011;2870;42.680;23.364;2022-11-18T13:30:45;10.27;;;4.87;;
5690;SDS011;2870;42.680;23.364;2022-11-18T13:33:17;12.20;;;7.10;;
5690;SDS011;2870;42.680;23.364;2022-11-18T13:35:44;12.83;;;7.10;;
5690;SDS011;2870;42.680;23.364;2022-11-18T13:38:17;13.27;;;7.40;;
5690;SDS011;2870;42.680;23.364;2022-11-18T13:40:48;15.67;;;9.47;;
5690;SDS011;2870;42.680;23.364;2022-11-18T13:43:32;18.47;;;8.40;;
5690;SDS011;2870;42.680;23.364;2022-11-18T13:45:59;13.87;;;8.80;;
5690;SDS011;2870;42.680;23.364;2022-11-18T13:48:29;21.23;;;9.80;;
5690;SDS011;2870;42.680;23.364;2022-11-18T13:50:59;22.40;;;10.33;;
5690;SDS011;2870;42.680;23.364;2022-11-18T13:53:27;15.43;;;9.20;;
5690;SDS011;2870;42.680;23.364;2022-11-18T13:55:59;20.10;;;9.97;;
5690;SDS011;2870;42.680;23.364;2022-11-18T13:58:31;21.93;;;11.40;;
5690;SDS011;2870;42.680;23.364;2022-11-18T14:01:02;21.07;;;13.57;;
5690;SDS011;2870;42.680;23.364;2022-11-18T14:03:31;21.67;;;12.03;;
5690;SDS011;2870;42.680;23.364;2022-11-18T14:06:01;21.00;;;12.33;;
5690;SDS011;2870;42.680;23.364;2022-11-18T14:08:29;32.33;;;11.40;;
5690;SDS011;2870;42.680;23.364;2022-11-18T14:10:59;19.60;;;10.90;;
5690;SDS011;2870;42.680;23.364;2022-11-18T14:13:27;25.00;;;11.60;;
5690;SDS011;2870;42.680;23.364;2022-11-18T14:15:56;23.23;;;11.77;;
5690;SDS011;2870;42.680;23.364;2022-11-18T14:18:27;22.33;;;9.90;;
5690;SDS011;2870;42.680;23.364;2022-11-18T14:20:56;15.33;;;7.23;;
5690;SDS011;2870;42.680;23.364;2022-11-18T14:23:25;18.43;;;9.53;;
5690;SDS011;2870;42.680;23.364;2022-11-18T14:25:54;28.60;;;16.07;;
5690;SDS011;2870;42.680;23.364;2022-11-18T14:28:25;19.87;;;10.97;;
5690;SDS011;2870;42.680;23.364;2022-11-18T14:30:55;19.80;;;11.63;;
5690;SDS011;2870;42.680;23.364;2022-11-18T14:33:28;23.90;;;9.10;;
5690;SDS011;2870;42.680;23.364;2022-11-18T14:35:56;17.40;;;9.80;;
5690;SDS011;2870;42.680;23.364;2022-11-18T14:38:28;19.03;;;10.07;;
5690;SDS011;2870;42.680;23.364;2022-11-18T14:41:02;18.13;;;12.20;;
5690;SDS011;2870;42.680;23.364;2022-11-18T14:43:32;24.07;;;9.90;;
5690;SDS011;2870;42.680;23.364;2022-11-18T14:45:59;18.80;;;9.90;;
5690;SDS011;2870;42.680;23.364;2022-11-18T14:48:29;20.37;;;10.93;;
5690;SDS011;2870;42.680;23.364;2022-11-18T14:50:57;24.40;;;10.43;;
5690;SDS011;2870;42.680;23.364;2022-11-18T14:53:24;23.63;;;12.10;;
5690;SDS011;2870;42.680;23.364;2022-11-18T14:55:51;22.47;;;13.17;;
5690;SDS011;2870;42.680;23.364;2022-11-18T14:58:19;22.77;;;13.20;;
5690;SDS011;2870;42.680;23.364;2022-11-18T15:00:47;23.27;;;14.03;;
5690;SDS011;2870;42.680;23.364;2022-11-18T15:03:15;33.50;;;14.90;;
5690;SDS011;2870;42.680;23.364;2022-11-18T15:05:43;25.93;;;14.73;;
5690;SDS011;2870;42.680;23.364;2022-11-18T15:08:10;20.83;;;12.10;;
5690;SDS011;2870;42.680;23.364;2022-11-18T15:10:37;13.97;;;4.20;;
5690;SDS011;2870;42.680;23.364;2022-11-18T15:13:03;7.37;;;4.93;;
5690;SDS011;2870;42.680;23.364;2022-11-18T15:15:30;15.20;;;5.93;;
5690;SDS011;2870;42.680;23.364;2022-11-18T15:17:59;12.07;;;7.23;;
5690;SDS011;2870;42.680;23.364;2022-11-18T15:20:26;11.37;;;4.97;;
5690;SDS011;2870;42.680;23.364;2022-11-18T15:22:53;13.50;;;4.77;;
5690;SDS011;2870;42.680;23.364;2022-11-18T15:25:20;9.00;;;4.67;;